Main page
METAR-TAF:

METAR-TAF

Airports :

Grenoble, France

Grenoble Alpes Isère Airport

latitude: 45-22N, longitude: 005-20E, elevation: 384 m

Current weather observation

The report was made 18 minutes ago, at 19:00 UTC
Wind 7 kt from the North/Northeast
Temperature 17°C
Humidity 68%
Pressure 1020 hPa
Visibility 10 km or more
no clouds below 1500 m and no cumulonimbus

METAR: LFLS 231900Z AUTO 02007KT CAVOK 17/11 Q1020 NOSIG

Time: 21:18 (19:18 UTC)

Forecast

The report was made 5 hours and 18 minutes ago, at 14:00 UTC
Forecast valid from 23 at 15 UTC to 24 at 15 UTC
Wind 3 kt from variable directions
Visibility 10 km or more
no clouds below 1500 m and no cumulonimbus
Becoming
from 23 at 15 UTC to 23 at 17 UTC
Wind 6 kt from the East
Becoming
from 24 at 07 UTC to 24 at 09 UTC
Wind 4 kt from the North/Northwest

TAF: LFLS 231400Z 2315/2415 VRB03KT CAVOK BECMG 2315/2317 09006KT BECMG 2407/2409 34004KT

Weather observations and forecasts of more than 4000 airports (METAR and TAF reports).

The available stations are represented by yellow and red dots on the map.

Hover mouse over dot to see the name of the station.

Then click to see weather observations and forecasts.

To change the map : click on the green buttons with a black cross to zoom in, on the green button with a dash to zoom out, or on the green arrows for adjacent maps.


METAR-TAF: